sensor_id;sensor_type;location;lat;lon;timestamp;temperature;humidity
26479;DHT22;14163;-26.142;27.992;2022-09-17T02:18:57;18.70;74.10
26479;DHT22;14163;-26.142;27.992;2022-09-17T02:21:35;18.20;73.90
26479;DHT22;14163;-26.142;27.992;2022-09-17T02:24:13;18.90;72.80
26479;DHT22;14163;-26.142;27.992;2022-09-17T02:26:47;19.70;73.10
26479;DHT22;14163;-26.142;27.992;2022-09-17T02:29:24;20.50;70.90
26479;DHT22;14163;-26.142;27.992;2022-09-17T02:31:54;21.00;70.10
26479;DHT22;14163;-26.142;27.992;2022-09-17T02:34:25;21.40;69.50
26479;DHT22;14163;-26.142;27.992;2022-09-17T02:36:56;21.70;69.80
26479;DHT22;14163;-26.142;27.992;2022-09-17T02:39:26;22.00;67.20
26479;DHT22;14163;-26.142;27.992;2022-09-17T02:42:01;22.10;67.30
26479;DHT22;14163;-26.142;27.992;2022-09-17T02:44:38;22.20;65.90
26479;DHT22;14163;-26.142;27.992;2022-09-17T02:47:33;22.30;65.70
26479;DHT22;14163;-26.142;27.992;2022-09-17T02:50:17;22.40;66.30
26479;DHT22;14163;-26.142;27.992;2022-09-17T02:53:02;22.40;68.10
26479;DHT22;14163;-26.142;27.992;2022-09-17T02:55:37;22.40;68.20
26479;DHT22;14163;-26.142;27.992;2022-09-17T02:58:15;22.40;68.30
26479;DHT22;14163;-26.142;27.992;2022-09-17T03:00:47;22.40;68.70
26479;DHT22;14163;-26.142;27.992;2022-09-17T03:03:20;22.30;68.10
26479;DHT22;14163;-26.142;27.992;2022-09-17T03:05:53;22.30;68.90
26479;DHT22;14163;-26.142;27.992;2022-09-17T03:08:29;22.20;68.90
26479;DHT22;14163;-26.142;27.992;2022-09-17T03:11:00;22.20;69.70
26479;DHT22;14163;-26.142;27.992;2022-09-17T03:13:30;22.10;69.80
26479;DHT22;14163;-26.142;27.992;2022-09-17T03:16:01;22.10;69.70
26479;DHT22;14163;-26.142;27.992;2022-09-17T03:18:30;22.00;70.00
26479;DHT22;14163;-26.142;27.992;2022-09-17T03:21:01;21.90;70.00
26479;DHT22;14163;-26.142;27.992;2022-09-17T03:23:30;21.90;70.30
26479;DHT22;14163;-26.142;27.992;2022-09-17T03:25:59;21.90;70.70
26479;DHT22;14163;-26.142;27.992;2022-09-17T03:28:29;21.90;69.90
26479;DHT22;14163;-26.142;27.992;2022-09-17T03:30:58;21.90;70.20
26479;DHT22;14163;-26.142;27.992;2022-09-17T03:33:27;21.90;70.40
26479;DHT22;14163;-26.142;27.992;2022-09-17T03:35:56;21.90;70.20
26479;DHT22;14163;-26.142;27.992;2022-09-17T03:38:27;21.80;70.20
26479;DHT22;14163;-26.142;27.992;2022-09-17T03:41:00;21.80;70.20
26479;DHT22;14163;-26.142;27.992;2022-09-17T03:43:29;21.80;70.40
26479;DHT22;14163;-26.142;27.992;2022-09-17T03:45:58;21.80;70.50
26479;DHT22;14163;-26.142;27.992;2022-09-17T03:48:27;21.80;70.50
26479;DHT22;14163;-26.142;27.992;2022-09-17T03:50:58;21.80;70.50
26479;DHT22;14163;-26.142;27.992;2022-09-17T03:53:29;21.80;70.90
26479;DHT22;14163;-26.142;27.992;2022-09-17T03:55:58;21.70;71.00
26479;DHT22;14163;-26.142;27.992;2022-09-17T03:58:29;21.70;71.30
26479;DHT22;14163;-26.142;27.992;2022-09-17T04:00:58;21.60;71.10
26479;DHT22;14163;-26.142;27.992;2022-09-17T04:03:29;21.60;71.40
26479;DHT22;14163;-26.142;27.992;2022-09-17T04:05:58;21.60;71.70
26479;DHT22;14163;-26.142;27.992;2022-09-17T04:08:29;21.50;72.30
26479;DHT22;14163;-26.142;27.992;2022-09-17T04:10:59;21.50;72.70
26479;DHT22;14163;-26.142;27.992;2022-09-17T04:13:28;21.40;73.00
26479;DHT22;14163;-26.142;27.992;2022-09-17T04:15:57;21.40;73.30
26479;DHT22;14163;-26.142;27.992;2022-09-17T04:18:26;21.40;73.60
26479;DHT22;14163;-26.142;27.992;2022-09-17T04:20:56;21.30;73.50
26479;DHT22;14163;-26.142;27.992;2022-09-17T04:23:26;21.30;73.10
26479;DHT22;14163;-26.142;27.992;2022-09-17T04:25:57;21.30;73.10
26479;DHT22;14163;-26.142;27.992;2022-09-17T04:28:26;21.20;73.10
26479;DHT22;14163;-26.142;27.992;2022-09-17T04:30:55;21.20;73.50
26479;DHT22;14163;-26.142;27.992;2022-09-17T04:33:25;21.20;73.80
26479;DHT22;14163;-26.142;27.992;2022-09-17T04:35:54;21.20;73.80
26479;DHT22;14163;-26.142;27.992;2022-09-17T04:38:23;21.30;73.70
26479;DHT22;14163;-26.142;27.992;2022-09-17T04:40:52;21.30;73.50
26479;DHT22;14163;-26.142;27.992;2022-09-17T04:43:24;21.30;73.30
26479;DHT22;14163;-26.142;27.992;2022-09-17T04:45:54;21.30;73.70
26479;DHT22;14163;-26.142;27.992;2022-09-17T04:48:23;21.40;73.80
26479;DHT22;14163;-26.142;27.992;2022-09-17T04:50:52;21.40;74.00
26479;DHT22;14163;-26.142;27.992;2022-09-17T04:53:21;21.40;74.80
26479;DHT22;14163;-26.142;27.992;2022-09-17T04:55:50;21.50;74.90
26479;DHT22;14163;-26.142;27.992;2022-09-17T04:58:20;21.50;75.50
26479;DHT22;14163;-26.142;27.992;2022-09-17T05:00:50;21.50;74.90
26479;DHT22;14163;-26.142;27.992;2022-09-17T05:03:19;21.60;73.00
26479;DHT22;14163;-26.142;27.992;2022-09-17T05:05:49;21.60;71.90
26479;DHT22;14163;-26.142;27.992;2022-09-17T05:08:18;21.60;72.80
26479;DHT22;14163;-26.142;27.992;2022-09-17T05:10:49;21.70;73.60
26479;DHT22;14163;-26.142;27.992;2022-09-17T05:13:19;21.80;73.50
26479;DHT22;14163;-26.142;27.992;2022-09-17T05:15:50;21.80;74.00
26479;DHT22;14163;-26.142;27.992;2022-09-17T05:18:19;21.90;74.10
26479;DHT22;14163;-26.142;27.992;2022-09-17T05:20:48;21.90;74.60
26479;DHT22;14163;-26.142;27.992;2022-09-17T05:23:18;22.00;75.60
26479;DHT22;14163;-26.142;27.992;2022-09-17T05:25:47;22.00;75.70
26479;DHT22;14163;-26.142;27.992;2022-09-17T05:28:16;22.10;75.30
26479;DHT22;14163;-26.142;27.992;2022-09-17T05:30:46;22.20;74.70
26479;DHT22;14163;-26.142;27.992;2022-09-17T05:33:16;22.20;70.40
26479;DHT22;14163;-26.142;27.992;2022-09-17T05:35:46;22.30;66.70
26479;DHT22;14163;-26.142;27.992;2022-09-17T05:38:15;22.40;65.80
26479;DHT22;14163;-26.142;27.992;2022-09-17T05:40:45;22.50;65.60
26479;DHT22;14163;-26.142;27.992;2022-09-17T05:43:15;22.60;65.40
26479;DHT22;14163;-26.142;27.992;2022-09-17T05:45:44;22.60;64.20
26479;DHT22;14163;-26.142;27.992;2022-09-17T05:48:17;22.70;64.30
26479;DHT22;14163;-26.142;27.992;2022-09-17T05:50:46;22.70;64.50
26479;DHT22;14163;-26.142;27.992;2022-09-17T05:53:16;22.80;62.90
26479;DHT22;14163;-26.142;27.992;2022-09-17T05:55:45;22.80;63.00
26479;DHT22;14163;-26.142;27.992;2022-09-17T05:58:15;22.80;62.60
26479;DHT22;14163;-26.142;27.992;2022-09-17T06:00:44;22.90;62.40
26479;DHT22;14163;-26.142;27.992;2022-09-17T06:03:18;23.00;62.60
26479;DHT22;14163;-26.142;27.992;2022-09-17T06:05:53;23.00;61.70
26479;DHT22;14163;-26.142;27.992;2022-09-17T06:08:22;23.00;60.50
26479;DHT22;14163;-26.142;27.992;2022-09-17T06:10:52;23.00;61.30
26479;DHT22;14163;-26.142;27.992;2022-09-17T06:13:21;23.00;61.10
26479;DHT22;14163;-26.142;27.992;2022-09-17T06:15:51;23.10;61.50
26479;DHT22;14163;-26.142;27.992;2022-09-17T06:18:22;23.10;61.20
26479;DHT22;14163;-26.142;27.992;2022-09-17T06:20:55;23.00;61.60
26479;DHT22;14163;-26.142;27.992;2022-09-17T06:23:25;23.00;61.50
26479;DHT22;14163;-26.142;27.992;2022-09-17T06:25:57;23.00;62.30
26479;DHT22;14163;-26.142;27.992;2022-09-17T06:28:26;23.10;61.90
26479;DHT22;14163;-26.142;27.992;2022-09-17T06:30:59;23.10;61.60
26479;DHT22;14163;-26.142;27.992;2022-09-17T06:33:30;23.20;61.90
26479;DHT22;14163;-26.142;27.992;2022-09-17T06:36:01;23.20;62.40
26479;DHT22;14163;-26.142;27.992;2022-09-17T06:38:32;23.20;62.70
26479;DHT22;14163;-26.142;27.992;2022-09-17T06:41:02;23.30;62.20
26479;DHT22;14163;-26.142;27.992;2022-09-17T06:43:32;23.30;62.00
26479;DHT22;14163;-26.142;27.992;2022-09-17T06:46:02;23.30;62.20
26479;DHT22;14163;-26.142;27.992;2022-09-17T06:48:34;23.20;61.90
26479;DHT22;14163;-26.142;27.992;2022-09-17T06:51:05;23.40;62.70
26479;DHT22;14163;-26.142;27.992;2022-09-17T06:53:36;23.40;62.70
26479;DHT22;14163;-26.142;27.992;2022-09-17T06:56:06;23.30;63.00
26479;DHT22;14163;-26.142;27.992;2022-09-17T06:58:36;23.30;63.40
26479;DHT22;14163;-26.142;27.992;2022-09-17T07:01:07;23.30;63.60
26479;DHT22;14163;-26.142;27.992;2022-09-17T07:03:40;23.40;63.90
26479;DHT22;14163;-26.142;27.992;2022-09-17T07:06:11;23.60;63.70
26479;DHT22;14163;-26.142;27.992;2022-09-17T07:08:40;23.60;63.30
26479;DHT22;14163;-26.142;27.992;2022-09-17T07:11:09;23.70;63.80
26479;DHT22;14163;-26.142;27.992;2022-09-17T07:13:38;23.70;62.50
26479;DHT22;14163;-26.142;27.992;2022-09-17T07:16:08;23.80;62.60
26479;DHT22;14163;-26.142;27.992;2022-09-17T07:18:39;23.80;63.40
26479;DHT22;14163;-26.142;27.992;2022-09-17T07:21:09;23.90;62.90
26479;DHT22;14163;-26.142;27.992;2022-09-17T07:23:39;23.90;62.30
26479;DHT22;14163;-26.142;27.992;2022-09-17T07:26:13;23.80;61.80
26479;DHT22;14163;-26.142;27.992;2022-09-17T07:28:43;23.80;62.60
26479;DHT22;14163;-26.142;27.992;2022-09-17T07:31:13;24.00;61.80
26479;DHT22;14163;-26.142;27.992;2022-09-17T07:33:44;24.10;61.50
26479;DHT22;14163;-26.142;27.992;2022-09-17T07:36:14;24.20;60.20
26479;DHT22;14163;-26.142;27.992;2022-09-17T07:38:45;24.20;60.40
26479;DHT22;14163;-26.142;27.992;2022-09-17T07:41:15;24.30;60.00
26479;DHT22;14163;-26.142;27.992;2022-09-17T07:43:44;24.30;59.90
26479;DHT22;14163;-26.142;27.992;2022-09-17T07:46:15;24.40;59.70
26479;DHT22;14163;-26.142;27.992;2022-09-17T07:48:46;24.50;60.30
26479;DHT22;14163;-26.142;27.992;2022-09-17T07:51:16;24.70;60.00
26479;DHT22;14163;-26.142;27.992;2022-09-17T07:53:46;24.70;60.20
26479;DHT22;14163;-26.142;27.992;2022-09-17T07:56:16;24.80;59.80
26479;DHT22;14163;-26.142;27.992;2022-09-17T07:58:45;24.70;59.40
26479;DHT22;14163;-26.142;27.992;2022-09-17T08:01:15;24.70;59.00
26479;DHT22;14163;-26.142;27.992;2022-09-17T10:12:00;24.90;55.60
26479;DHT22;14163;-26.142;27.992;2022-09-17T10:14:30;25.20;55.20
26479;DHT22;14163;-26.142;27.992;2022-09-17T10:17:16;25.90;54.00
26479;DHT22;14163;-26.142;27.992;2022-09-17T10:20:07;26.80;52.30
26479;DHT22;14163;-26.142;27.992;2022-09-17T10:22:39;27.40;51.00
26479;DHT22;14163;-26.142;27.992;2022-09-17T10:25:23;28.00;51.00
26479;DHT22;14163;-26.142;27.992;2022-09-17T10:27:58;28.40;49.90
26479;DHT22;14163;-26.142;27.992;2022-09-17T10:30:28;28.90;50.50
26479;DHT22;14163;-26.142;27.992;2022-09-17T10:33:17;29.30;50.40
26479;DHT22;14163;-26.142;27.992;2022-09-17T10:35:59;30.00;49.80
26479;DHT22;14163;-26.142;27.992;2022-09-17T10:38:31;30.90;49.10
26479;DHT22;14163;-26.142;27.992;2022-09-17T10:41:18;31.80;47.60
26479;DHT22;14163;-26.142;27.992;2022-09-17T10:43:52;32.50;46.40
26479;DHT22;14163;-26.142;27.992;2022-09-17T10:46:25;33.50;45.20
26479;DHT22;14163;-26.142;27.992;2022-09-17T10:49:05;34.10;44.50
26479;DHT22;14163;-26.142;27.992;2022-09-17T10:51:37;34.60;44.00
26479;DHT22;14163;-26.142;27.992;2022-09-17T10:54:18;35.00;42.80
26479;DHT22;14163;-26.142;27.992;2022-09-17T10:56:53;35.20;42.90
26479;DHT22;14163;-26.142;27.992;2022-09-17T10:59:53;35.60;41.70
26479;DHT22;14163;-26.142;27.992;2022-09-17T11:02:51;35.90;41.10
26479;DHT22;14163;-26.142;27.992;2022-09-17T11:05:49;35.70;39.80
26479;DHT22;14163;-26.142;27.992;2022-09-17T11:08:29;36.20;39.70
26479;DHT22;14163;-26.142;27.992;2022-09-17T11:11:05;36.80;39.70
26479;DHT22;14163;-26.142;27.992;2022-09-17T11:13:40;37.30;38.60
26479;DHT22;14163;-26.142;27.992;2022-09-17T11:16:29;37.30;38.10
26479;DHT22;14163;-26.142;27.992;2022-09-17T11:19:12;37.60;37.90
26479;DHT22;14163;-26.142;27.992;2022-09-17T11:21:46;38.30;38.60
26479;DHT22;14163;-26.142;27.992;2022-09-17T11:24:34;39.00;38.60
26479;DHT22;14163;-26.142;27.992;2022-09-17T11:27:19;39.10;36.50
26479;DHT22;14163;-26.142;27.992;2022-09-17T11:30:15;38.80;36.70
26479;DHT22;14163;-26.142;27.992;2022-09-17T11:35:48;38.30;36.70
26479;DHT22;14163;-26.142;27.992;2022-09-17T11:38:25;37.60;37.00
26479;DHT22;14163;-26.142;27.992;2022-09-17T11:41:01;36.80;36.60
26479;DHT22;14163;-26.142;27.992;2022-09-17T11:43:33;36.50;38.10
26479;DHT22;14163;-26.142;27.992;2022-09-17T11:46:07;36.80;37.10
26479;DHT22;14163;-26.142;27.992;2022-09-17T11:48:44;37.40;36.60
26479;DHT22;14163;-26.142;27.992;2022-09-17T11:51:25;38.20;35.80
26479;DHT22;14163;-26.142;27.992;2022-09-17T11:53:58;39.10;36.80
26479;DHT22;14163;-26.142;27.992;2022-09-17T11:56:32;39.70;34.80
26479;DHT22;14163;-26.142;27.992;2022-09-17T11:59:07;39.90;34.80
26479;DHT22;14163;-26.142;27.992;2022-09-17T12:01:40;39.20;34.80
26479;DHT22;14163;-26.142;27.992;2022-09-17T12:04:33;37.80;35.40
26479;DHT22;14163;-26.142;27.992;2022-09-17T12:07:20;36.40;36.20
26479;DHT22;14163;-26.142;27.992;2022-09-17T12:09:52;35.30;36.90
26479;DHT22;14163;-26.142;27.992;2022-09-17T12:12:25;34.80;37.20
26479;DHT22;14163;-26.142;27.992;2022-09-17T12:15:00;34.40;37.60
26479;DHT22;14163;-26.142;27.992;2022-09-17T12:17:36;34.80;37.50
26479;DHT22;14163;-26.142;27.992;2022-09-17T12:20:24;34.80;37.40
26479;DHT22;14163;-26.142;27.992;2022-09-17T12:22:57;34.60;37.10
26479;DHT22;14163;-26.142;27.992;2022-09-17T12:25:31;34.30;37.10
26479;DHT22;14163;-26.142;27.992;2022-09-17T12:28:03;34.00;38.30
26479;DHT22;14163;-26.142;27.992;2022-09-17T12:30:39;33.50;38.10
26479;DHT22;14163;-26.142;27.992;2022-09-17T12:33:18;33.30;38.70
26479;DHT22;14163;-26.142;27.992;2022-09-17T12:36:25;33.10;39.00
26479;DHT22;14163;-26.142;27.992;2022-09-17T12:39:21;33.10;39.80
26479;DHT22;14163;-26.142;27.992;2022-09-17T12:42:02;32.80;38.80
26479;DHT22;14163;-26.142;27.992;2022-09-17T12:44:55;32.60;38.50
26479;DHT22;14163;-26.142;27.992;2022-09-17T12:47:56;32.70;37.90
26479;DHT22;14163;-26.142;27.992;2022-09-17T12:50:37;32.50;38.50
26479;DHT22;14163;-26.142;27.992;2022-09-17T12:53:19;32.20;39.00
26479;DHT22;14163;-26.142;27.992;2022-09-17T12:56:13;32.20;39.40
26479;DHT22;14163;-26.142;27.992;2022-09-17T12:58:59;32.20;39.40
26479;DHT22;14163;-26.142;27.992;2022-09-17T13:01:38;32.20;39.90
26479;DHT22;14163;-26.142;27.992;2022-09-17T13:07:33;32.20;39.80
26479;DHT22;14163;-26.142;27.992;2022-09-17T13:13:05;32.50;40.10
26479;DHT22;14163;-26.142;27.992;2022-09-17T13:15:48;32.60;39.70
26479;DHT22;14163;-26.142;27.992;2022-09-17T13:18:25;32.60;39.60
26479;DHT22;14163;-26.142;27.992;2022-09-17T13:21:02;32.60;39.50
26479;DHT22;14163;-26.142;27.992;2022-09-17T13:23:35;32.40;39.40
26479;DHT22;14163;-26.142;27.992;2022-09-17T13:26:08;32.30;39.50
26479;DHT22;14163;-26.142;27.992;2022-09-17T13:28:45;32.20;39.40
26479;DHT22;14163;-26.142;27.992;2022-09-17T13:31:20;32.10;39.30
26479;DHT22;14163;-26.142;27.992;2022-09-17T13:33:51;32.10;39.80
26479;DHT22;14163;-26.142;27.992;2022-09-17T13:36:41;31.90;39.80
26479;DHT22;14163;-26.142;27.992;2022-09-17T13:42:02;31.70;39.60
26479;DHT22;14163;-26.142;27.992;2022-09-17T13:44:35;31.50;39.70
26479;DHT22;14163;-26.142;27.992;2022-09-17T13:47:13;31.50;39.70
26479;DHT22;14163;-26.142;27.992;2022-09-17T13:49:46;31.70;39.40
26479;DHT22;14163;-26.142;27.992;2022-09-17T13:52:30;31.50;39.70
26479;DHT22;14163;-26.142;27.992;2022-09-17T13:55:01;31.40;39.50
26479;DHT22;14163;-26.142;27.992;2022-09-17T13:57:44;31.20;39.70
26479;DHT22;14163;-26.142;27.992;2022-09-17T14:03:47;31.10;39.70
26479;DHT22;14163;-26.142;27.992;2022-09-17T14:06:48;31.20;40.10
26479;DHT22;14163;-26.142;27.992;2022-09-17T14:09:48;31.10;39.60
26479;DHT22;14163;-26.142;27.992;2022-09-17T14:12:56;31.10;40.10
26479;DHT22;14163;-26.142;27.992;2022-09-17T14:15:35;31.30;40.50
26479;DHT22;14163;-26.142;27.992;2022-09-17T14:21:12;31.50;40.20
26479;DHT22;14163;-26.142;27.992;2022-09-17T14:23:44;31.60;40.70
26479;DHT22;14163;-26.142;27.992;2022-09-17T14:26:22;31.70;41.10
26479;DHT22;14163;-26.142;27.992;2022-09-17T14:29:00;31.70;40.40
26479;DHT22;14163;-26.142;27.992;2022-09-17T14:31:35;31.20;40.10
26479;DHT22;14163;-26.142;27.992;2022-09-17T14:34:07;30.60;40.70
26479;DHT22;14163;-26.142;27.992;2022-09-17T14:36:42;30.30;40.90
26479;DHT22;14163;-26.142;27.992;2022-09-17T14:39:16;30.20;41.70
26479;DHT22;14163;-26.142;27.992;2022-09-17T14:41:50;30.20;41.70
26479;DHT22;14163;-26.142;27.992;2022-09-17T14:44:23;30.30;41.30
26479;DHT22;14163;-26.142;27.992;2022-09-17T14:46:57;30.30;40.70
26479;DHT22;14163;-26.142;27.992;2022-09-17T14:49:29;30.20;40.80
26479;DHT22;14163;-26.142;27.992;2022-09-17T14:52:00;30.20;40.30
26479;DHT22;14163;-26.142;27.992;2022-09-17T14:54:31;30.20;40.50
26479;DHT22;14163;-26.142;27.992;2022-09-17T14:57:02;30.20;40.50
26479;DHT22;14163;-26.142;27.992;2022-09-17T14:59:48;30.30;41.10
26479;DHT22;14163;-26.142;27.992;2022-09-17T15:02:35;30.30;40.70
26479;DHT22;14163;-26.142;27.992;2022-09-17T15:05:21;30.10;40.30
26479;DHT22;14163;-26.142;27.992;2022-09-17T15:08:03;29.80;40.50
26479;DHT22;14163;-26.142;27.992;2022-09-17T15:10:35;29.60;40.70
26479;DHT22;14163;-26.142;27.992;2022-09-17T15:13:11;29.50;40.60
26479;DHT22;14163;-26.142;27.992;2022-09-17T15:15:55;29.60;40.60
26479;DHT22;14163;-26.142;27.992;2022-09-17T15:18:33;29.50;40.40
26479;DHT22;14163;-26.142;27.992;2022-09-17T15:21:05;29.40;40.40
26479;DHT22;14163;-26.142;27.992;2022-09-17T15:23:38;29.30;40.60
26479;DHT22;14163;-26.142;27.992;2022-09-17T15:26:09;29.30;40.70
26479;DHT22;14163;-26.142;27.992;2022-09-17T15:28:41;29.30;40.80
26479;DHT22;14163;-26.142;27.992;2022-09-17T15:31:17;29.30;40.80
26479;DHT22;14163;-26.142;27.992;2022-09-17T15:33:46;29.30;41.20
26479;DHT22;14163;-26.142;27.992;2022-09-17T15:36:20;29.40;40.80
26479;DHT22;14163;-26.142;27.992;2022-09-17T15:38:50;29.20;40.50
26479;DHT22;14163;-26.142;27.992;2022-09-17T15:41:27;29.10;40.90
26479;DHT22;14163;-26.142;27.992;2022-09-17T15:44:17;29.10;41.00
26479;DHT22;14163;-26.142;27.992;2022-09-17T15:46:50;29.10;41.20
26479;DHT22;14163;-26.142;27.992;2022-09-17T15:49:29;29.00;41.30
26479;DHT22;14163;-26.142;27.992;2022-09-17T15:52:23;28.80;41.40
26479;DHT22;14163;-26.142;27.992;2022-09-17T15:54:55;28.70;41.60
26479;DHT22;14163;-26.142;27.992;2022-09-17T15:57:25;28.80;42.10
26479;DHT22;14163;-26.142;27.992;2022-09-17T15:59:56;29.00;42.00
26479;DHT22;14163;-26.142;27.992;2022-09-17T16:02:34;28.90;42.00
26479;DHT22;14163;-26.142;27.992;2022-09-17T18:13:06;22.80;57.70
26479;DHT22;14163;-26.142;27.992;2022-09-17T18:15:35;22.70;57.90
26479;DHT22;14163;-26.142;27.992;2022-09-17T18:18:04;23.30;57.30
26479;DHT22;14163;-26.142;27.992;2022-09-17T18:20:33;23.90;56.40
26479;DHT22;14163;-26.142;27.992;2022-09-17T18:23:03;24.60;55.40
26479;DHT22;14163;-26.142;27.992;2022-09-17T18:25:32;25.10;55.00
26479;DHT22;14163;-26.142;27.992;2022-09-17T18:28:02;25.50;54.50
26479;DHT22;14163;-26.142;27.992;2022-09-17T18:30:35;25.80;54.30
26479;DHT22;14163;-26.142;27.992;2022-09-17T18:33:05;26.00;54.20
26479;DHT22;14163;-26.142;27.992;2022-09-17T18:35:37;26.20;54.10
26479;DHT22;14163;-26.142;27.992;2022-09-17T18:38:06;26.20;53.80
26479;DHT22;14163;-26.142;27.992;2022-09-17T18:40:35;26.30;53.90
26479;DHT22;14163;-26.142;27.992;2022-09-17T18:43:04;26.40;53.90
26479;DHT22;14163;-26.142;27.992;2022-09-17T18:45:35;26.40;53.90
26479;DHT22;14163;-26.142;27.992;2022-09-17T18:48:05;26.40;54.50
26479;DHT22;14163;-26.142;27.992;2022-09-17T18:50:34;26.30;54.00
26479;DHT22;14163;-26.142;27.992;2022-09-17T18:53:03;26.40;54.10
26479;DHT22;14163;-26.142;27.992;2022-09-17T18:55:32;26.30;54.00
26479;DHT22;14163;-26.142;27.992;2022-09-17T18:58:01;26.30;54.10
26479;DHT22;14163;-26.142;27.992;2022-09-17T19:00:31;26.20;54.10
26479;DHT22;14163;-26.142;27.992;2022-09-17T19:03:02;26.20;54.20
26479;DHT22;14163;-26.142;27.992;2022-09-17T19:05:32;26.20;54.20
26479;DHT22;14163;-26.142;27.992;2022-09-17T19:08:01;26.20;54.30
26479;DHT22;14163;-26.142;27.992;2022-09-17T19:10:31;26.20;54.50
26479;DHT22;14163;-26.142;27.992;2022-09-17T19:13:00;26.10;54.70
26479;DHT22;14163;-26.142;27.992;2022-09-17T19:15:31;26.10;54.90
26479;DHT22;14163;-26.142;27.992;2022-09-17T19:18:02;26.10;55.30
26479;DHT22;14163;-26.142;27.992;2022-09-17T19:20:31;26.00;55.40
26479;DHT22;14163;-26.142;27.992;2022-09-17T19:23:04;25.90;55.70
26479;DHT22;14163;-26.142;27.992;2022-09-17T19:25:35;25.90;55.80
26479;DHT22;14163;-26.142;27.992;2022-09-17T19:28:04;25.80;56.10
26479;DHT22;14163;-26.142;27.992;2022-09-17T19:30:34;25.80;56.30
26479;DHT22;14163;-26.142;27.992;2022-09-17T19:33:05;25.80;56.30
26479;DHT22;14163;-26.142;27.992;2022-09-17T19:35:34;25.70;56.40
26479;DHT22;14163;-26.142;27.992;2022-09-17T19:38:03;25.80;56.60
26479;DHT22;14163;-26.142;27.992;2022-09-17T19:40:32;25.70;56.50
26479;DHT22;14163;-26.142;27.992;2022-09-17T19:43:02;25.70;56.40
26479;DHT22;14163;-26.142;27.992;2022-09-17T19:45:31;25.70;56.50
26479;DHT22;14163;-26.142;27.992;2022-09-17T19:48:00;25.60;56.30
26479;DHT22;14163;-26.142;27.992;2022-09-17T19:50:31;25.60;56.10
26479;DHT22;14163;-26.142;27.992;2022-09-17T19:53:00;25.60;55.90
26479;DHT22;14163;-26.142;27.992;2022-09-17T19:55:29;25.70;55.50
26479;DHT22;14163;-26.142;27.992;2022-09-17T19:57:59;25.60;55.20
26479;DHT22;14163;-26.142;27.992;2022-09-17T20:00:30;25.50;54.80
26479;DHT22;14163;-26.142;27.992;2022-09-17T20:02:59;25.40;54.40
26479;DHT22;14163;-26.142;27.992;2022-09-17T20:05:31;25.40;54.50
26479;DHT22;14163;-26.142;27.992;2022-09-17T20:08:02;25.30;54.70
26479;DHT22;14163;-26.142;27.992;2022-09-17T20:10:34;25.30;54.70
26479;DHT22;14163;-26.142;27.992;2022-09-17T20:13:05;25.30;54.90
26479;DHT22;14163;-26.142;27.992;2022-09-17T20:15:35;25.30;54.80
26479;DHT22;14163;-26.142;27.992;2022-09-17T20:18:04;25.30;54.80
26479;DHT22;14163;-26.142;27.992;2022-09-17T20:20:37;25.30;54.90
26479;DHT22;14163;-26.142;27.992;2022-09-17T20:23:07;25.20;55.10
26479;DHT22;14163;-26.142;27.992;2022-09-17T20:25:37;25.20;55.00
26479;DHT22;14163;-26.142;27.992;2022-09-17T20:28:06;25.20;55.10
26479;DHT22;14163;-26.142;27.992;2022-09-17T20:30:35;25.20;55.20
26479;DHT22;14163;-26.142;27.992;2022-09-17T20:33:04;25.20;55.40
26479;DHT22;14163;-26.142;27.992;2022-09-17T20:35:36;25.20;55.50
26479;DHT22;14163;-26.142;27.992;2022-09-17T20:38:06;25.10;56.20
26479;DHT22;14163;-26.142;27.992;2022-09-17T20:40:35;25.10;55.80
26479;DHT22;14163;-26.142;27.992;2022-09-17T20:43:04;25.00;55.80
26479;DHT22;14163;-26.142;27.992;2022-09-17T20:45:33;25.00;56.00
26479;DHT22;14163;-26.142;27.992;2022-09-17T20:48:03;25.00;56.00
26479;DHT22;14163;-26.142;27.992;2022-09-17T20:50:32;25.00;56.20
26479;DHT22;14163;-26.142;27.992;2022-09-17T20:53:03;25.00;56.30
26479;DHT22;14163;-26.142;27.992;2022-09-17T20:55:33;25.00;56.40
26479;DHT22;14163;-26.142;27.992;2022-09-17T20:58:05;24.90;56.50
26479;DHT22;14163;-26.142;27.992;2022-09-17T21:00:35;24.90;56.50
26479;DHT22;14163;-26.142;27.992;2022-09-17T21:03:05;24.90;56.50
26479;DHT22;14163;-26.142;27.992;2022-09-17T21:05:37;24.80;56.40
26479;DHT22;14163;-26.142;27.992;2022-09-17T21:08:08;24.80;56.60
26479;DHT22;14163;-26.142;27.992;2022-09-17T21:10:41;24.80;56.60
26479;DHT22;14163;-26.142;27.992;2022-09-17T21:13:11;24.70;56.60
26479;DHT22;14163;-26.142;27.992;2022-09-17T21:15:41;24.70;56.90
26479;DHT22;14163;-26.142;27.992;2022-09-17T21:18:10;24.70;56.80
26479;DHT22;14163;-26.142;27.992;2022-09-17T21:20:41;24.70;56.60
26479;DHT22;14163;-26.142;27.992;2022-09-17T21:23:12;24.60;57.00
26479;DHT22;14163;-26.142;27.992;2022-09-17T21:25:41;24.60;57.10
26479;DHT22;14163;-26.142;27.992;2022-09-17T21:28:11;24.60;57.30
26479;DHT22;14163;-26.142;27.992;2022-09-17T21:30:47;24.50;57.50
26479;DHT22;14163;-26.142;27.992;2022-09-17T21:33:16;24.50;57.70
26479;DHT22;14163;-26.142;27.992;2022-09-17T21:35:49;24.40;57.80
26479;DHT22;14163;-26.142;27.992;2022-09-17T21:38:20;24.40;57.80
26479;DHT22;14163;-26.142;27.992;2022-09-17T21:40:56;24.40;57.90
26479;DHT22;14163;-26.142;27.992;2022-09-17T21:43:26;24.40;57.80
26479;DHT22;14163;-26.142;27.992;2022-09-17T21:46:02;24.40;57.30
26479;DHT22;14163;-26.142;27.992;2022-09-17T21:48:33;24.30;57.10
26479;DHT22;14163;-26.142;27.992;2022-09-17T21:51:04;24.30;56.70
26479;DHT22;14163;-26.142;27.992;2022-09-17T21:53:35;24.40;56.40
26479;DHT22;14163;-26.142;27.992;2022-09-17T21:56:06;24.30;56.10
26479;DHT22;14163;-26.142;27.992;2022-09-17T21:58:35;24.20;55.80
26479;DHT22;14163;-26.142;27.992;2022-09-17T22:01:06;24.20;55.80
26479;DHT22;14163;-26.142;27.992;2022-09-17T22:03:36;24.10;55.70
26479;DHT22;14163;-26.142;27.992;2022-09-17T22:06:12;24.10;56.10
26479;DHT22;14163;-26.142;27.992;2022-09-17T22:08:44;24.00;56.00
26479;DHT22;14163;-26.142;27.992;2022-09-17T22:11:15;23.90;55.90
26479;DHT22;14163;-26.142;27.992;2022-09-17T22:13:50;23.90;56.00
26479;DHT22;14163;-26.142;27.992;2022-09-17T22:16:21;23.90;56.10
26479;DHT22;14163;-26.142;27.992;2022-09-17T22:18:51;23.90;56.20
26479;DHT22;14163;-26.142;27.992;2022-09-17T22:21:21;23.90;56.10
26479;DHT22;14163;-26.142;27.992;2022-09-17T22:23:54;23.90;56.00
26479;DHT22;14163;-26.142;27.992;2022-09-17T22:26:25;24.00;55.80
26479;DHT22;14163;-26.142;27.992;2022-09-17T22:28:59;24.00;55.40
26479;DHT22;14163;-26.142;27.992;2022-09-17T22:31:28;24.00;55.30
26479;DHT22;14163;-26.142;27.992;2022-09-17T22:33:57;24.00;55.30